createdAt,value
2019-05-23T00:00:22.039Z,1011.36
2019-05-23T00:01:22.007Z,1011.29
2019-05-23T00:02:22.005Z,1011.22
2019-05-23T00:03:22.002Z,1011.34
2019-05-23T00:04:22.001Z,1011.32
2019-05-23T00:05:21.973Z,1011.32
2019-05-23T00:06:21.967Z,1011.33
2019-05-23T00:07:21.955Z,1011.30
2019-05-23T00:08:21.961Z,1011.30
2019-05-23T00:09:21.928Z,1011.35
2019-05-23T00:10:21.925Z,1011.32
2019-05-23T00:11:21.918Z,1011.33
2019-05-23T00:12:21.917Z,1011.32
2019-05-23T00:13:21.893Z,1011.33
2019-05-23T00:14:21.872Z,1011.31
2019-05-23T00:15:21.855Z,1011.33
2019-05-23T00:16:21.845Z,1011.34
2019-05-23T00:17:21.831Z,1011.28
2019-05-23T00:18:21.855Z,1011.36
2019-05-23T00:19:21.820Z,1011.30
2019-05-23T00:20:21.817Z,1011.28
2019-05-23T00:21:21.788Z,1011.28
2019-05-23T00:22:21.791Z,1011.33
2019-05-23T00:23:21.777Z,1011.33
2019-05-23T00:24:21.761Z,1011.30
2019-05-23T00:25:21.758Z,1011.32
2019-05-23T00:26:21.750Z,1011.28
2019-05-23T00:27:21.726Z,1011.33
2019-05-23T00:28:21.721Z,1011.32
2019-05-23T00:29:21.712Z,1011.36
2019-05-23T00:30:21.703Z,1011.29
2019-05-23T00:31:21.695Z,1011.33
2019-05-23T00:32:21.675Z,1011.32
2019-05-23T00:33:21.654Z,1011.34
2019-05-23T00:34:21.651Z,1011.29
2019-05-23T00:35:21.637Z,1011.32
2019-05-23T00:36:21.626Z,1011.29
2019-05-23T00:37:21.641Z,1011.39
2019-05-23T00:38:21.602Z,1011.29
2019-05-23T00:39:21.594Z,1011.35
2019-05-23T00:40:21.584Z,1011.30
2019-05-23T00:41:21.575Z,1011.36
2019-05-23T00:42:21.580Z,1011.33
2019-05-23T00:43:21.557Z,1011.34
2019-05-23T00:44:21.536Z,1011.32
2019-05-23T00:45:21.523Z,1011.33
2019-05-23T00:46:21.519Z,1011.38
2019-05-23T00:47:21.514Z,1011.34
2019-05-23T00:48:21.503Z,1011.38
2019-05-23T00:49:21.479Z,1011.28
2019-05-23T00:50:21.463Z,1011.36
2019-05-23T00:51:21.458Z,1011.36
2019-05-23T00:52:21.447Z,1011.32
2019-05-23T00:53:21.434Z,1011.43
2019-05-23T00:54:21.446Z,1011.43
2019-05-23T00:55:21.410Z,1011.40
2019-05-23T00:56:21.404Z,1011.40
2019-05-23T00:57:21.391Z,1011.45
2019-05-23T00:58:21.387Z,1011.48
2019-05-23T00:59:27.274Z,1011.41
2019-05-23T01:00:22.349Z,1011.43
2019-05-23T01:01:21.341Z,1011.40
2019-05-23T01:02:21.337Z,1011.45
2019-05-23T01:03:21.323Z,1011.38
2019-05-23T01:04:21.317Z,1011.44
2019-05-23T01:05:21.319Z,1011.47
2019-05-23T01:06:21.291Z,1011.42
2019-05-23T01:07:21.277Z,1011.48
2019-05-23T01:08:21.292Z,1011.40
2019-05-23T01:09:21.262Z,1011.57
2019-05-23T01:10:21.241Z,1011.56
2019-05-23T01:11:21.244Z,1011.48
2019-05-23T01:12:21.229Z,1011.52
2019-05-23T01:13:21.210Z,1011.56
2019-05-23T01:14:21.211Z,1011.55
2019-05-23T01:15:21.192Z,1011.51
2019-05-23T01:16:21.201Z,1011.59
2019-05-23T01:17:21.172Z,1011.59
2019-05-23T01:18:21.147Z,1011.54
2019-05-23T01:19:21.141Z,1011.55
2019-05-23T01:20:21.139Z,1011.53
2019-05-23T01:21:21.122Z,1011.55
2019-05-23T01:22:21.119Z,1011.57
2019-05-23T01:23:21.105Z,1011.61
2019-05-23T01:24:21.081Z,1011.58
2019-05-23T01:25:21.069Z,1011.63
2019-05-23T01:26:21.065Z,1011.62
2019-05-23T01:27:21.053Z,1011.56
2019-05-23T01:28:21.232Z,1011.56
2019-05-23T01:29:21.031Z,1011.55
2019-05-23T01:30:21.017Z,1011.58
2019-05-23T01:31:21.005Z,1011.62
2019-05-23T01:32:21.004Z,1011.58
2019-05-23T01:33:20.999Z,1011.52
2019-05-23T01:34:20.991Z,1011.57
2019-05-23T01:35:20.966Z,1011.58
2019-05-23T01:36:20.953Z,1011.57
2019-05-23T01:37:20.948Z,1011.53
2019-05-23T01:38:20.943Z,1011.60
2019-05-23T01:39:21.088Z,1011.60
2019-05-23T01:40:20.959Z,1011.64
2019-05-23T01:41:20.903Z,1011.64
2019-05-23T01:42:20.881Z,1011.59
2019-05-23T01:43:20.885Z,1011.69
2019-05-23T01:44:20.872Z,1011.63
2019-05-23T01:45:20.849Z,1011.64
2019-05-23T01:46:20.849Z,1011.66
2019-05-23T01:47:20.837Z,1011.66
2019-05-23T01:48:20.822Z,1011.63
2019-05-23T01:49:20.813Z,1011.60
2019-05-23T01:50:20.804Z,1011.67
2019-05-23T01:51:20.911Z,1011.63
2019-05-23T01:52:20.780Z,1011.71
2019-05-23T01:53:20.761Z,1011.73
2019-05-23T01:54:20.813Z,1011.66
2019-05-23T01:55:20.743Z,1011.65
2019-05-23T01:56:20.737Z,1011.73
2019-05-23T01:57:20.719Z,1011.74
2019-05-23T01:58:20.707Z,1011.75
2019-05-23T01:59:20.695Z,1011.78
2019-05-23T02:00:20.686Z,1011.79
2019-05-23T02:01:20.670Z,1011.84
2019-05-23T02:02:20.657Z,1011.78
2019-05-23T02:03:20.652Z,1011.81
2019-05-23T02:04:20.639Z,1011.87
2019-05-23T02:05:20.629Z,1011.84
2019-05-23T02:06:20.625Z,1011.76
2019-05-23T02:07:20.635Z,1011.77
2019-05-23T02:08:20.589Z,1011.75
2019-05-23T02:09:20.599Z,1011.82
2019-05-23T02:10:20.573Z,1011.84
2019-05-23T02:11:27.715Z,1011.81
2019-05-23T02:13:13.990Z,1011.81
2019-05-23T02:14:14.072Z,1011.83
2019-05-23T02:15:13.961Z,1011.81
2019-05-23T02:16:13.946Z,1011.79
2019-05-23T02:17:13.942Z,1011.81
2019-05-23T02:18:13.920Z,1011.82
2019-05-23T02:19:14.022Z,1011.83
2019-05-23T02:20:13.903Z,1011.79
2019-05-23T02:21:13.891Z,1011.80
2019-05-23T02:22:13.880Z,1011.77
2019-05-23T02:23:13.872Z,1011.86
2019-05-23T02:24:13.896Z,1011.77
2019-05-23T02:25:13.901Z,1011.75
2019-05-23T02:26:13.834Z,1011.78
2019-05-23T02:27:13.816Z,1011.78
2019-05-23T02:28:13.807Z,1011.86
2019-05-23T02:29:13.797Z,1011.84
2019-05-23T02:30:32.237Z,1011.81
2019-05-23T02:31:14.770Z,1011.83
2019-05-23T02:32:13.765Z,1011.83
2019-05-23T02:33:13.761Z,1011.81
2019-05-23T02:34:13.751Z,1011.82
2019-05-23T02:35:13.731Z,1011.76
2019-05-23T02:36:13.717Z,1011.80
2019-05-23T02:37:13.709Z,1011.78
2019-05-23T02:38:13.698Z,1011.78
2019-05-23T02:39:13.687Z,1011.75
2019-05-23T02:40:13.670Z,1011.82
2019-05-23T02:41:13.667Z,1011.81
2019-05-23T02:42:13.653Z,1011.81
2019-05-23T02:43:13.639Z,1011.77
2019-05-23T02:44:13.632Z,1011.79
2019-05-23T02:45:13.617Z,1011.76
2019-05-23T02:46:13.611Z,1011.75
2019-05-23T02:47:13.613Z,1011.72
2019-05-23T02:48:13.585Z,1011.77
2019-05-23T02:49:13.574Z,1011.72
2019-05-23T02:50:13.569Z,1011.71
2019-05-23T02:51:13.571Z,1011.70
2019-05-23T02:52:13.544Z,1011.77
2019-05-23T02:53:13.539Z,1011.76
2019-05-23T02:54:13.514Z,1011.73
2019-05-23T02:55:13.514Z,1011.80
2019-05-23T02:56:13.519Z,1011.77
2019-05-23T02:57:13.490Z,1011.78
2019-05-23T02:58:13.468Z,1011.76
2019-05-23T02:59:13.458Z,1011.77
2019-05-23T03:00:13.448Z,1011.77
2019-05-23T03:01:13.458Z,1011.78
2019-05-23T03:02:13.427Z,1011.80
2019-05-23T03:03:13.416Z,1011.85
2019-05-23T03:04:13.476Z,1011.82
2019-05-23T03:05:13.394Z,1011.87
2019-05-23T03:06:13.375Z,1011.84
2019-05-23T03:07:13.378Z,1011.85
2019-05-23T03:08:13.361Z,1011.86
2019-05-23T03:09:13.347Z,1011.85
2019-05-23T03:10:13.340Z,1011.90
2019-05-23T03:11:13.323Z,1011.85
2019-05-23T03:12:13.314Z,1011.75
2019-05-23T03:13:13.302Z,1011.83
2019-05-23T03:14:13.298Z,1011.85
2019-05-23T03:15:13.276Z,1011.87
2019-05-23T03:16:13.283Z,1011.80
2019-05-23T03:17:13.257Z,1011.84
2019-05-23T03:18:13.246Z,1011.85
2019-05-23T03:19:13.240Z,1011.89
2019-05-23T03:20:13.221Z,1011.88
2019-05-23T03:21:13.205Z,1011.83
2019-05-23T03:22:13.195Z,1011.80
2019-05-23T03:23:13.211Z,1011.82
2019-05-23T03:24:13.183Z,1011.86
2019-05-23T03:25:13.175Z,1011.86
2019-05-23T03:26:13.159Z,1011.88
2019-05-23T03:27:13.140Z,1011.89
2019-05-23T03:28:13.233Z,1011.93
2019-05-23T03:29:13.118Z,1011.91
2019-05-23T03:30:13.135Z,1011.88
2019-05-23T03:31:28.754Z,1011.91
2019-05-23T03:32:14.099Z,1011.92
2019-05-23T03:33:13.111Z,1011.91
2019-05-23T03:34:13.063Z,1011.96
2019-05-23T03:35:13.115Z,1011.90
2019-05-23T03:36:13.059Z,1011.88
2019-05-23T03:37:13.030Z,1011.88
2019-05-23T03:38:13.014Z,1011.90
2019-05-23T03:39:12.998Z,1011.90
2019-05-23T03:40:12.994Z,1011.95
2019-05-23T03:41:12.989Z,1011.96
2019-05-23T03:42:12.975Z,1011.96
2019-05-23T03:43:12.962Z,1012.00
2019-05-23T03:44:12.956Z,1011.94
2019-05-23T03:45:12.937Z,1011.98
2019-05-23T03:46:12.933Z,1011.97
2019-05-23T03:47:12.917Z,1011.92
2019-05-23T03:48:12.900Z,1011.95
2019-05-23T03:49:12.893Z,1011.93
2019-05-23T03:50:12.878Z,1011.92
2019-05-23T03:51:12.910Z,1011.99
2019-05-23T03:52:12.862Z,1011.99
2019-05-23T03:53:12.863Z,1011.98
2019-05-23T03:54:12.860Z,1011.96
2019-05-23T03:55:12.910Z,1011.99
2019-05-23T03:56:12.832Z,1011.97
2019-05-23T03:57:12.812Z,1011.94
2019-05-23T03:58:12.809Z,1011.98
2019-05-23T03:59:12.811Z,1012.07
2019-05-23T04:00:12.774Z,1012.04
2019-05-23T04:01:12.881Z,1012.04
2019-05-23T04:02:12.745Z,1012.11
2019-05-23T04:03:12.761Z,1012.05
2019-05-23T04:04:12.762Z,1012.06
2019-05-23T04:05:12.720Z,1012.05
2019-05-23T04:06:12.713Z,1012.07
2019-05-23T04:07:12.690Z,1012.06
2019-05-23T04:08:12.679Z,1012.12
2019-05-23T04:09:12.692Z,1012.08
2019-05-23T04:10:12.747Z,1012.08
2019-05-23T04:11:12.716Z,1012.06
2019-05-23T04:12:12.647Z,1012.16
2019-05-23T04:13:12.725Z,1012.15
2019-05-23T04:14:12.613Z,1012.16
2019-05-23T04:15:12.607Z,1012.16
2019-05-23T04:16:12.622Z,1012.22
2019-05-23T04:17:12.585Z,1012.20
2019-05-23T04:18:12.568Z,1012.20
2019-05-23T04:19:12.650Z,1012.15
2019-05-23T04:20:12.566Z,1012.21
2019-05-23T04:21:12.552Z,1012.18
2019-05-23T04:22:12.522Z,1012.20
2019-05-23T04:23:12.537Z,1012.17
2019-05-23T04:24:12.504Z,1012.16
2019-05-23T04:25:12.489Z,1012.17
2019-05-23T04:26:12.492Z,1012.21
2019-05-23T04:27:12.479Z,1012.22
2019-05-23T04:28:12.514Z,1012.21
2019-05-23T04:29:12.447Z,1012.15
2019-05-23T04:30:12.453Z,1012.22
2019-05-23T04:31:13.385Z,1012.16
2019-05-23T04:32:12.421Z,1012.24
2019-05-23T04:33:12.410Z,1012.19
2019-05-23T04:34:12.453Z,1012.16
2019-05-23T04:35:12.386Z,1012.22
2019-05-23T04:36:12.421Z,1012.29
2019-05-23T04:37:12.378Z,1012.23
2019-05-23T04:38:12.357Z,1012.29
2019-05-23T04:39:12.353Z,1012.31
2019-05-23T04:40:12.325Z,1012.30
2019-05-23T04:41:12.325Z,1012.30
2019-05-23T04:42:12.312Z,1012.35
2019-05-23T04:43:12.345Z,1012.30
2019-05-23T04:44:12.293Z,1012.23
2019-05-23T04:45:12.268Z,1012.31
2019-05-23T04:46:12.260Z,1012.32
2019-05-23T04:47:12.251Z,1012.30
2019-05-23T04:48:12.263Z,1012.36
2019-05-23T04:49:12.238Z,1012.37
2019-05-23T04:50:12.211Z,1012.36
2019-05-23T04:51:12.240Z,1012.35
2019-05-23T04:52:12.192Z,1012.39
2019-05-23T04:53:12.191Z,1012.34
2019-05-23T04:54:12.170Z,1012.38
2019-05-23T04:55:12.166Z,1012.43
2019-05-23T04:56:12.184Z,1012.43
2019-05-23T04:57:12.142Z,1012.38
2019-05-23T04:58:12.130Z,1012.43
2019-05-23T04:59:12.112Z,1012.37
2019-05-23T05:00:12.116Z,1012.38
2019-05-23T05:01:12.104Z,1012.36
2019-05-23T05:02:25.711Z,1012.29
2019-05-23T05:03:17.028Z,1012.32
2019-05-23T05:04:13.061Z,1012.34
2019-05-23T05:05:12.067Z,1012.30
2019-05-23T05:06:12.047Z,1012.31
2019-05-23T05:07:12.059Z,1012.38
2019-05-23T05:08:12.193Z,1012.37
2019-05-23T05:09:12.006Z,1012.34
2019-05-23T05:10:11.997Z,1012.37
2019-05-23T05:11:11.986Z,1012.35
2019-05-23T05:12:12.004Z,1012.38
2019-05-23T05:13:11.966Z,1012.40
2019-05-23T05:14:11.949Z,1012.43
2019-05-23T05:15:11.947Z,1012.41
2019-05-23T05:16:11.926Z,1012.46
2019-05-23T05:17:11.923Z,1012.44
2019-05-23T05:18:11.910Z,1012.35
2019-05-23T05:19:11.902Z,1012.44
2019-05-23T05:20:11.881Z,1012.39
2019-05-23T05:21:11.883Z,1012.37
2019-05-23T05:22:11.879Z,1012.41
2019-05-23T05:23:11.865Z,1012.45
2019-05-23T05:24:11.839Z,1012.45
2019-05-23T05:25:11.834Z,1012.48
2019-05-23T05:26:11.818Z,1012.50
2019-05-23T05:27:11.811Z,1012.47
2019-05-23T05:28:11.804Z,1012.48
2019-05-23T05:29:11.777Z,1012.50
2019-05-23T05:30:11.775Z,1012.45
2019-05-23T05:31:11.777Z,1012.56
2019-05-23T05:32:11.752Z,1012.52
2019-05-23T05:33:11.738Z,1012.57
2019-05-23T05:34:11.732Z,1012.51
2019-05-23T05:35:11.722Z,1012.50
2019-05-23T05:36:11.703Z,1012.53
2019-05-23T05:37:11.691Z,1012.52
2019-05-23T05:38:11.681Z,1012.50
2019-05-23T05:39:11.667Z,1012.53
2019-05-23T05:40:11.674Z,1012.50
2019-05-23T05:41:11.660Z,1012.51
2019-05-23T05:42:11.639Z,1012.55
2019-05-23T05:43:11.621Z,1012.61
2019-05-23T05:44:12.069Z,1012.59
2019-05-23T05:45:11.720Z,1012.60
2019-05-23T05:46:11.599Z,1012.59
2019-05-23T05:47:11.592Z,1012.57
2019-05-23T05:48:11.565Z,1012.65
2019-05-23T05:49:11.554Z,1012.58
2019-05-23T05:50:11.566Z,1012.59
2019-05-23T05:51:11.548Z,1012.62
2019-05-23T05:52:11.529Z,1012.62
2019-05-23T05:53:11.512Z,1012.60
2019-05-23T05:54:11.511Z,1012.57
2019-05-23T05:55:11.490Z,1012.62
2019-05-23T05:56:11.484Z,1012.64
2019-05-23T05:57:11.473Z,1012.68
2019-05-23T05:58:11.458Z,1012.62
2019-05-23T05:59:11.472Z,1012.62
2019-05-23T06:00:13.112Z,1012.68
2019-05-23T06:01:11.428Z,1012.64
2019-05-23T06:02:11.415Z,1012.59
2019-05-23T06:03:11.521Z,1012.60
2019-05-23T06:04:11.490Z,1012.67
2019-05-23T06:05:11.373Z,1012.60
2019-05-23T06:06:11.379Z,1012.63
2019-05-23T06:07:11.349Z,1012.61
2019-05-23T06:08:11.367Z,1012.57
2019-05-23T06:09:11.342Z,1012.64
2019-05-23T06:10:11.319Z,1012.66
2019-05-23T06:11:11.319Z,1012.60
2019-05-23T06:12:11.294Z,1012.62
2019-05-23T06:13:11.296Z,1012.69
2019-05-23T06:14:11.281Z,1012.63
2019-05-23T06:15:11.271Z,1012.64
2019-05-23T06:16:11.251Z,1012.71
2019-05-23T06:17:11.249Z,1012.70
2019-05-23T06:18:11.237Z,1012.73
2019-05-23T06:19:11.225Z,1012.67
2019-05-23T06:20:11.214Z,1012.78
2019-05-23T06:21:11.330Z,1012.74
2019-05-23T06:22:11.242Z,1012.79
2019-05-23T06:23:11.187Z,1012.77
2019-05-23T06:24:11.185Z,1012.75
2019-05-23T06:25:11.770Z,1012.75
2019-05-23T06:26:11.159Z,1012.77
2019-05-23T06:27:11.125Z,1012.73
2019-05-23T06:28:11.121Z,1012.74
2019-05-23T06:29:11.111Z,1012.70
2019-05-23T06:30:11.097Z,1012.74
2019-05-23T06:31:11.102Z,1012.73
2019-05-23T06:32:11.074Z,1012.80
2019-05-23T06:33:22.769Z,1012.74
2019-05-23T06:34:12.083Z,1012.73
2019-05-23T06:35:11.193Z,1012.73
2019-05-23T06:36:11.030Z,1012.79
2019-05-23T06:37:11.026Z,1012.80
2019-05-23T06:38:11.001Z,1012.76
2019-05-23T06:39:11.007Z,1012.75
2019-05-23T06:40:10.996Z,1012.74
2019-05-23T06:41:10.978Z,1012.79
2019-05-23T06:42:10.969Z,1012.80
2019-05-23T06:43:10.955Z,1012.81
2019-05-23T06:44:10.945Z,1012.78
2019-05-23T06:45:11.034Z,1012.74
2019-05-23T06:46:10.923Z,1012.83
2019-05-23T06:47:10.909Z,1012.87
2019-05-23T06:48:10.902Z,1012.87
2019-05-23T06:49:10.883Z,1012.84
2019-05-23T06:50:10.864Z,1012.85
2019-05-23T06:51:10.862Z,1012.87
2019-05-23T06:52:10.908Z,1012.86
2019-05-23T06:53:10.881Z,1012.94
2019-05-23T06:54:10.833Z,1012.88
2019-05-23T06:55:10.819Z,1012.85
2019-05-23T06:56:10.815Z,1012.93
2019-05-23T06:57:10.790Z,1012.92
2019-05-23T06:58:10.808Z,1012.90
2019-05-23T06:59:10.771Z,1012.86
2019-05-23T07:00:10.774Z,1012.90
2019-05-23T07:01:10.751Z,1012.82
2019-05-23T07:02:10.745Z,1012.84
2019-05-23T07:03:10.810Z,1012.87
2019-05-23T07:04:10.713Z,1012.87
2019-05-23T07:05:10.739Z,1012.87
2019-05-23T07:06:10.735Z,1012.80
2019-05-23T07:07:10.684Z,1012.87
2019-05-23T07:08:10.671Z,1012.92
2019-05-23T07:09:10.656Z,1012.86
2019-05-23T07:10:10.663Z,1012.87
2019-05-23T07:11:10.644Z,1012.93
2019-05-23T07:12:10.685Z,1012.90
2019-05-23T07:13:10.621Z,1012.87
2019-05-23T07:14:10.599Z,1012.97
2019-05-23T07:15:10.590Z,1012.97
2019-05-23T07:16:10.581Z,1012.93
2019-05-23T07:17:10.582Z,1012.92
2019-05-23T07:18:10.593Z,1012.92
2019-05-23T07:19:10.546Z,1012.90
2019-05-23T07:20:10.537Z,1012.92
2019-05-23T07:21:10.531Z,1012.86
2019-05-23T07:22:10.553Z,1012.92
2019-05-23T07:23:10.502Z,1012.94
2019-05-23T07:24:10.496Z,1012.92
2019-05-23T07:25:10.476Z,1012.94
2019-05-23T07:26:10.471Z,1012.90
2019-05-23T07:27:10.451Z,1012.93
2019-05-23T07:28:10.454Z,1012.86
2019-05-23T07:29:10.437Z,1012.92
2019-05-23T07:30:10.412Z,1012.93
2019-05-23T07:31:10.439Z,1012.89
2019-05-23T07:32:10.399Z,1012.95
2019-05-23T07:33:10.388Z,1012.96
2019-05-23T07:34:10.374Z,1013.03
2019-05-23T07:35:10.364Z,1012.96
2019-05-23T07:36:10.354Z,1013.02
2019-05-23T07:37:10.340Z,1012.97
2019-05-23T07:38:10.344Z,1013.03
2019-05-23T07:39:11.713Z,1012.96
2019-05-23T07:40:10.306Z,1013.02
2019-05-23T07:41:10.300Z,1012.99
2019-05-23T07:42:10.285Z,1012.95
2019-05-23T07:43:10.350Z,1012.97
2019-05-23T07:44:10.308Z,1013.01
2019-05-23T07:45:10.257Z,1013.01
2019-05-23T07:46:10.239Z,1013.01
2019-05-23T07:47:10.223Z,1012.97
2019-05-23T07:48:10.225Z,1012.95
2019-05-23T07:49:10.226Z,1012.97
2019-05-23T07:50:10.256Z,1013.01
2019-05-23T07:51:10.194Z,1012.94
2019-05-23T07:52:10.172Z,1013.02
2019-05-23T07:53:10.159Z,1013.03
2019-05-23T07:54:10.161Z,1013.07
2019-05-23T07:55:10.168Z,1012.95
2019-05-23T07:56:10.134Z,1013.03
2019-05-23T07:57:10.111Z,1013.01
2019-05-23T07:58:13.448Z,1013.02
2019-05-23T07:59:10.097Z,1012.99
2019-05-23T08:00:10.084Z,1013.02
2019-05-23T08:01:10.073Z,1012.97
2019-05-23T08:02:10.058Z,1012.92
2019-05-23T08:03:10.054Z,1012.90
2019-05-23T08:04:21.188Z,1012.90
2019-05-23T08:05:11.041Z,1012.91
2019-05-23T08:06:10.028Z,1012.94
2019-05-23T08:07:10.009Z,1012.96
2019-05-23T08:08:10.172Z,1013.04
2019-05-23T08:09:09.985Z,1012.90
2019-05-23T08:10:10.041Z,1012.92
2019-05-23T08:11:09.977Z,1012.94
2019-05-23T08:12:09.961Z,1012.90
2019-05-23T08:13:09.941Z,1012.94
2019-05-23T08:14:12.094Z,1012.94
2019-05-23T08:15:09.956Z,1012.99
2019-05-23T08:16:09.904Z,1012.97
2019-05-23T08:17:09.904Z,1012.94
2019-05-23T08:18:09.896Z,1012.95
2019-05-23T08:19:09.893Z,1012.96
2019-05-23T08:20:09.862Z,1012.93
2019-05-23T08:21:09.845Z,1012.91
2019-05-23T08:22:09.844Z,1012.90
2019-05-23T08:23:09.834Z,1012.93
2019-05-23T08:24:09.818Z,1012.98
2019-05-23T08:25:09.809Z,1013.00
2019-05-23T08:26:09.791Z,1012.93
2019-05-23T08:27:09.784Z,1012.96
2019-05-23T08:28:09.782Z,1012.90
2019-05-23T08:29:25.429Z,1012.97
2019-05-23T08:30:10.799Z,1012.92
2019-05-23T08:31:09.744Z,1012.97
2019-05-23T08:32:09.726Z,1012.97
2019-05-23T08:33:09.731Z,1012.98
2019-05-23T08:34:09.709Z,1013.00
2019-05-23T08:35:09.710Z,1013.01
2019-05-23T08:36:09.698Z,1012.94
2019-05-23T08:37:09.668Z,1012.97
2019-05-23T08:38:09.663Z,1012.96
2019-05-23T08:39:09.673Z,1013.02
2019-05-23T08:40:09.635Z,1013.02
2019-05-23T08:41:09.688Z,1012.98
2019-05-23T08:42:09.636Z,1013.03
2019-05-23T08:43:09.612Z,1013.09
2019-05-23T08:44:11.594Z,1012.99
2019-05-23T08:45:09.588Z,1012.95
2019-05-23T08:46:09.584Z,1013.00
2019-05-23T08:47:09.574Z,1013.02
2019-05-23T08:48:09.560Z,1012.97
2019-05-23T08:49:09.545Z,1013.02
2019-05-23T08:50:09.535Z,1012.92
2019-05-23T08:51:09.531Z,1012.99
2019-05-23T08:52:09.512Z,1012.90
2019-05-23T08:53:09.546Z,1012.97
2019-05-23T08:54:09.523Z,1012.96
2019-05-23T08:55:09.489Z,1012.93
2019-05-23T08:56:18.377Z,1012.99
2019-05-23T08:57:10.462Z,1012.85
2019-05-23T08:58:09.466Z,1012.88
2019-05-23T08:59:09.442Z,1012.94
2019-05-23T09:00:09.416Z,1012.89
2019-05-23T09:01:09.436Z,1012.93
2019-05-23T09:02:09.401Z,1012.93
2019-05-23T09:03:09.413Z,1012.90
2019-05-23T09:04:09.379Z,1012.94
2019-05-23T09:05:09.363Z,1012.92
2019-05-23T09:06:09.354Z,1012.97
2019-05-23T09:07:09.379Z,1012.98
2019-05-23T09:08:09.349Z,1012.95
2019-05-23T09:09:27.782Z,1012.99
2019-05-23T09:10:10.294Z,1012.97
2019-05-23T09:11:09.298Z,1012.96
2019-05-23T09:12:09.278Z,1012.93
2019-05-23T09:13:09.280Z,1012.92
2019-05-23T09:14:09.255Z,1012.90
2019-05-23T09:15:10.329Z,1012.99
2019-05-23T09:16:09.262Z,1013.01
2019-05-23T09:17:09.216Z,1012.98
2019-05-23T09:18:09.208Z,1012.93
2019-05-23T09:19:09.203Z,1012.91
2019-05-23T09:20:09.228Z,1012.92
2019-05-23T09:21:09.190Z,1013.00
2019-05-23T09:22:09.161Z,1012.91
2019-05-23T09:23:09.155Z,1012.91
2019-05-23T09:24:09.143Z,1012.97
2019-05-23T09:25:09.130Z,1012.95
2019-05-23T09:26:09.117Z,1013.03
2019-05-23T09:27:09.140Z,1013.00
2019-05-23T09:28:09.099Z,1013.01
2019-05-23T09:29:09.085Z,1012.95
2019-05-23T09:30:09.078Z,1013.04
2019-05-23T09:31:09.065Z,1013.00
2019-05-23T09:32:09.059Z,1013.11
2019-05-23T09:33:09.079Z,1012.98
2019-05-23T09:34:09.027Z,1012.95
2019-05-23T09:35:20.137Z,1012.94
2019-05-23T09:36:10.007Z,1013.02
2019-05-23T09:37:09.003Z,1012.91
2019-05-23T09:38:08.986Z,1012.96
2019-05-23T09:39:08.975Z,1012.88
2019-05-23T09:40:08.961Z,1012.94
2019-05-23T09:41:08.963Z,1012.87
2019-05-23T09:42:12.025Z,1012.94
2019-05-23T09:43:08.933Z,1012.95
2019-05-23T09:44:08.926Z,1012.98
2019-05-23T09:45:08.910Z,1012.95
2019-05-23T09:46:08.893Z,1012.95
2019-05-23T09:47:08.906Z,1012.98
2019-05-23T09:48:08.947Z,1012.88
2019-05-23T09:49:11.234Z,1012.94
2019-05-23T09:50:08.848Z,1012.89
2019-05-23T09:51:08.834Z,1012.84
2019-05-23T09:52:09.628Z,1012.87
2019-05-23T09:53:08.813Z,1012.93
2019-05-23T09:54:08.805Z,1012.83
2019-05-23T09:55:08.792Z,1012.87
2019-05-23T09:56:08.799Z,1012.83
2019-05-23T09:57:08.882Z,1012.82
2019-05-23T09:58:08.840Z,1012.80
2019-05-23T09:59:08.747Z,1012.80
2019-05-23T10:00:08.802Z,1012.83
2019-05-23T10:01:08.793Z,1012.73
2019-05-23T10:02:08.730Z,1012.82
2019-05-23T10:03:08.723Z,1012.77
2019-05-23T10:04:08.689Z,1012.80
2019-05-23T10:05:08.691Z,1012.77
2019-05-23T10:06:08.665Z,1012.73
2019-05-23T10:07:08.654Z,1012.78
2019-05-23T10:08:08.645Z,1012.84
2019-05-23T10:09:08.642Z,1012.78
2019-05-23T10:10:08.616Z,1012.80
2019-05-23T10:11:08.613Z,1012.82
2019-05-23T10:12:08.618Z,1012.81
2019-05-23T10:13:08.586Z,1012.78
2019-05-23T10:14:08.587Z,1012.80
2019-05-23T10:15:08.560Z,1012.80
2019-05-23T10:16:08.666Z,1012.72
2019-05-23T10:17:08.542Z,1012.77
2019-05-23T10:18:08.663Z,1012.66
2019-05-23T10:19:08.515Z,1012.75
2019-05-23T10:20:08.509Z,1012.75
2019-05-23T10:21:08.498Z,1012.83
2019-05-23T10:22:08.509Z,1012.80
2019-05-23T10:23:08.485Z,1012.77
2019-05-23T10:24:08.490Z,1012.74
2019-05-23T10:25:08.450Z,1012.79
2019-05-23T10:26:08.453Z,1012.77
2019-05-23T10:27:08.427Z,1012.76
2019-05-23T10:28:08.419Z,1012.85
2019-05-23T10:29:08.407Z,1012.82
2019-05-23T10:30:08.397Z,1012.82
2019-05-23T10:31:08.377Z,1012.80
2019-05-23T10:32:08.393Z,1012.75
2019-05-23T10:33:11.931Z,1012.80
2019-05-23T10:34:08.355Z,1012.83
2019-05-23T10:35:08.354Z,1012.77
2019-05-23T10:36:08.328Z,1012.75
2019-05-23T10:37:08.329Z,1012.75
2019-05-23T10:38:08.342Z,1012.71
2019-05-23T10:39:08.295Z,1012.69
2019-05-23T10:40:08.277Z,1012.77
2019-05-23T10:41:08.288Z,1012.68
2019-05-23T10:42:08.256Z,1012.71
2019-05-23T10:43:08.250Z,1012.75
2019-05-23T10:44:08.254Z,1012.77
2019-05-23T10:45:08.221Z,1012.72
2019-05-23T10:46:08.222Z,1012.63
2019-05-23T10:47:08.205Z,1012.66
2019-05-23T10:48:08.195Z,1012.71
2019-05-23T10:49:08.175Z,1012.70
2019-05-23T10:50:09.976Z,1012.67
2019-05-23T10:51:08.169Z,1012.69
2019-05-23T10:52:08.150Z,1012.69
2019-05-23T10:53:08.138Z,1012.65
2019-05-23T10:54:08.125Z,1012.61
2019-05-23T10:55:08.235Z,1012.58
2019-05-23T10:56:08.099Z,1012.55
2019-05-23T10:57:08.092Z,1012.61
2019-05-23T10:58:08.077Z,1012.61
2019-05-23T10:59:08.194Z,1012.61
2019-05-23T11:00:08.058Z,1012.63
2019-05-23T11:01:08.046Z,1012.69
2019-05-23T11:02:08.036Z,1012.66
2019-05-23T11:03:08.022Z,1012.64
2019-05-23T11:04:08.006Z,1012.64
2019-05-23T11:05:12.914Z,1012.68
2019-05-23T11:06:16.073Z,1012.64
2019-05-23T11:07:08.994Z,1012.63
2019-05-23T11:08:07.975Z,1012.73
2019-05-23T11:09:07.963Z,1012.55
2019-05-23T11:10:07.947Z,1012.65
2019-05-23T11:11:07.935Z,1012.72
2019-05-23T11:12:08.520Z,1012.70
2019-05-23T11:13:07.925Z,1012.74
2019-05-23T11:14:08.871Z,1012.75
2019-05-23T11:15:07.891Z,1012.69
2019-05-23T11:16:07.878Z,1012.73
2019-05-23T11:17:07.871Z,1012.73
2019-05-23T11:18:07.861Z,1012.71
2019-05-23T11:19:07.893Z,1012.73
2019-05-23T11:20:07.838Z,1012.66
2019-05-23T11:21:07.819Z,1012.70
2019-05-23T11:22:07.813Z,1012.65
2019-05-23T11:23:07.820Z,1012.63
2019-05-23T11:24:07.787Z,1012.65
2019-05-23T11:25:07.811Z,1012.63
2019-05-23T11:26:07.780Z,1012.67
2019-05-23T11:27:07.759Z,1012.72
2019-05-23T11:28:07.886Z,1012.69
2019-05-23T11:29:07.740Z,1012.69
2019-05-23T11:30:07.725Z,1012.57
2019-05-23T11:31:07.740Z,1012.58
2019-05-23T11:32:07.709Z,1012.57
2019-05-23T11:33:07.703Z,1012.61
2019-05-23T11:34:07.691Z,1012.53
2019-05-23T11:35:07.663Z,1012.55
2019-05-23T11:36:07.656Z,1012.56
2019-05-23T11:37:07.640Z,1012.60
2019-05-23T11:38:07.650Z,1012.58
2019-05-23T11:39:07.620Z,1012.57
2019-05-23T11:40:07.606Z,1012.53
2019-05-23T11:41:07.604Z,1012.59
2019-05-23T11:42:07.621Z,1012.52
2019-05-23T11:43:07.636Z,1012.59
2019-05-23T11:44:07.571Z,1012.52
2019-05-23T11:45:07.553Z,1012.58
2019-05-23T11:46:07.550Z,1012.52
2019-05-23T11:47:07.547Z,1012.48
2019-05-23T11:48:07.520Z,1012.42
2019-05-23T11:49:07.521Z,1012.52
2019-05-23T11:50:07.545Z,1012.54
2019-05-23T11:51:07.497Z,1012.53
2019-05-23T11:52:07.495Z,1012.52
2019-05-23T11:53:07.470Z,1012.52
2019-05-23T11:54:09.596Z,1012.52
2019-05-23T11:55:07.448Z,1012.47
2019-05-23T11:56:07.449Z,1012.51
2019-05-23T11:57:07.440Z,1012.52
2019-05-23T11:58:07.415Z,1012.52
2019-05-23T11:59:07.441Z,1012.53
2019-05-23T12:00:07.399Z,1012.51
2019-05-23T12:01:07.439Z,1012.56
2019-05-23T12:02:07.375Z,1012.57
2019-05-23T12:03:07.358Z,1012.58
2019-05-23T12:04:07.406Z,1012.55
2019-05-23T12:05:07.356Z,1012.57
2019-05-23T12:06:07.340Z,1012.56